sensor_id;sensor_type;location;lat;lon;timestamp;P1;durP1;ratioP1;P2;durP2;ratioP2
43883;SDS011;29544;52.018;5.810;2023-05-21T00:00:11;2.30;;;1.20;;
43883;SDS011;29544;52.018;5.810;2023-05-21T00:02:37;2.20;;;1.17;;
43883;SDS011;29544;52.018;5.810;2023-05-21T00:05:03;4.43;;;1.23;;
43883;SDS011;29544;52.018;5.810;2023-05-21T00:07:29;1.27;;;1.02;;
43883;SDS011;29544;52.018;5.810;2023-05-21T00:09:57;1.58;;;1.20;;
43883;SDS011;29544;52.018;5.810;2023-05-21T00:12:22;1.77;;;1.00;;
43883;SDS011;29544;52.018;5.810;2023-05-21T00:14:49;1.88;;;1.17;;
43883;SDS011;29544;52.018;5.810;2023-05-21T00:17:15;1.48;;;0.93;;
43883;SDS011;29544;52.018;5.810;2023-05-21T00:19:42;2.40;;;1.10;;
43883;SDS011;29544;52.018;5.810;2023-05-21T00:22:13;2.97;;;1.33;;
43883;SDS011;29544;52.018;5.810;2023-05-21T00:24:40;2.53;;;1.20;;
43883;SDS011;29544;52.018;5.810;2023-05-21T00:27:07;1.00;;;0.87;;
43883;SDS011;29544;52.018;5.810;2023-05-21T00:29:32;1.80;;;1.25;;
43883;SDS011;29544;52.018;5.810;2023-05-21T00:32:01;1.20;;;1.00;;
43883;SDS011;29544;52.018;5.810;2023-05-21T00:34:27;1.00;;;0.90;;
43883;SDS011;29544;52.018;5.810;2023-05-21T00:36:53;1.90;;;0.95;;
43883;SDS011;29544;52.018;5.810;2023-05-21T00:39:19;1.70;;;1.30;;
43883;SDS011;29544;52.018;5.810;2023-05-21T00:41:45;2.33;;;1.30;;
43883;SDS011;29544;52.018;5.810;2023-05-21T00:44:12;2.67;;;1.38;;
43883;SDS011;29544;52.018;5.810;2023-05-21T00:46:40;1.75;;;1.30;;
43883;SDS011;29544;52.018;5.810;2023-05-21T00:49:09;1.48;;;1.10;;
43883;SDS011;29544;52.018;5.810;2023-05-21T00:51:36;2.85;;;1.38;;
43883;SDS011;29544;52.018;5.810;2023-05-21T00:54:03;1.67;;;1.00;;
43883;SDS011;29544;52.018;5.810;2023-05-21T00:56:28;1.33;;;1.20;;
43883;SDS011;29544;52.018;5.810;2023-05-21T00:58:56;2.20;;;1.13;;
43883;SDS011;29544;52.018;5.810;2023-05-21T01:01:23;2.58;;;1.08;;
43883;SDS011;29544;52.018;5.810;2023-05-21T01:03:53;1.52;;;1.17;;
43883;SDS011;29544;52.018;5.810;2023-05-21T01:06:22;2.80;;;1.38;;
43883;SDS011;29544;52.018;5.810;2023-05-21T01:08:48;1.23;;;0.90;;
43883;SDS011;29544;52.018;5.810;2023-05-21T01:11:14;2.97;;;1.38;;
43883;SDS011;29544;52.018;5.810;2023-05-21T01:13:42;1.75;;;1.30;;
43883;SDS011;29544;52.018;5.810;2023-05-21T01:16:12;1.42;;;1.08;;
43883;SDS011;29544;52.018;5.810;2023-05-21T01:18:38;1.67;;;1.35;;
43883;SDS011;29544;52.018;5.810;2023-05-21T01:21:08;2.10;;;1.30;;
43883;SDS011;29544;52.018;5.810;2023-05-21T01:23:34;1.60;;;1.10;;
43883;SDS011;29544;52.018;5.810;2023-05-21T01:26:00;1.70;;;1.27;;
43883;SDS011;29544;52.018;5.810;2023-05-21T01:28:28;1.48;;;1.10;;
43883;SDS011;29544;52.018;5.810;2023-05-21T01:30:53;1.13;;;1.00;;
43883;SDS011;29544;52.018;5.810;2023-05-21T01:33:24;3.05;;;1.50;;
43883;SDS011;29544;52.018;5.810;2023-05-21T01:39:28;1.23;;;1.00;;
43883;SDS011;29544;52.018;5.810;2023-05-21T01:41:58;2.55;;;1.20;;
43883;SDS011;29544;52.018;5.810;2023-05-21T01:44:25;1.60;;;1.02;;
43883;SDS011;29544;52.018;5.810;2023-05-21T01:46:52;1.23;;;1.00;;
43883;SDS011;29544;52.018;5.810;2023-05-21T01:49:20;1.50;;;1.00;;
43883;SDS011;29544;52.018;5.810;2023-05-21T01:54:17;2.70;;;1.73;;
43883;SDS011;29544;52.018;5.810;2023-05-21T01:56:46;1.10;;;1.00;;
43883;SDS011;29544;52.018;5.810;2023-05-21T01:59:14;1.98;;;1.25;;
43883;SDS011;29544;52.018;5.810;2023-05-21T02:01:41;1.80;;;1.15;;
43883;SDS011;29544;52.018;5.810;2023-05-21T02:04:07;1.20;;;1.00;;
43883;SDS011;29544;52.018;5.810;2023-05-21T02:09:00;2.05;;;1.40;;
43883;SDS011;29544;52.018;5.810;2023-05-21T02:11:27;1.10;;;1.00;;
43883;SDS011;29544;52.018;5.810;2023-05-21T02:13:53;1.57;;;1.20;;
43883;SDS011;29544;52.018;5.810;2023-05-21T02:16:18;2.30;;;1.27;;
43883;SDS011;29544;52.018;5.810;2023-05-21T02:18:47;1.42;;;1.10;;
43883;SDS011;29544;52.018;5.810;2023-05-21T02:21:16;2.17;;;1.50;;
43883;SDS011;29544;52.018;5.810;2023-05-21T02:23:41;1.83;;;1.50;;
43883;SDS011;29544;52.018;5.810;2023-05-21T02:26:17;1.48;;;1.17;;
43883;SDS011;29544;52.018;5.810;2023-05-21T02:28:42;1.20;;;1.00;;
43883;SDS011;29544;52.018;5.810;2023-05-21T02:31:08;1.37;;;1.07;;
43883;SDS011;29544;52.018;5.810;2023-05-21T02:33:34;2.17;;;1.60;;
43883;SDS011;29544;52.018;5.810;2023-05-21T02:36:01;1.30;;;1.00;;
43883;SDS011;29544;52.018;5.810;2023-05-21T02:38:26;1.40;;;1.20;;
43883;SDS011;29544;52.018;5.810;2023-05-21T02:40:56;1.42;;;1.20;;
43883;SDS011;29544;52.018;5.810;2023-05-21T02:43:22;1.33;;;1.00;;
43883;SDS011;29544;52.018;5.810;2023-05-21T02:45:47;1.50;;;1.20;;
43883;SDS011;29544;52.018;5.810;2023-05-21T02:50:39;1.58;;;1.33;;
43883;SDS011;29544;52.018;5.810;2023-05-21T02:53:12;2.65;;;1.40;;
43883;SDS011;29544;52.018;5.810;2023-05-21T02:55:42;1.40;;;1.08;;
43883;SDS011;29544;52.018;5.810;2023-05-21T02:58:17;1.50;;;1.20;;
43883;SDS011;29544;52.018;5.810;2023-05-21T03:00:43;1.40;;;1.30;;
43883;SDS011;29544;52.018;5.810;2023-05-21T03:03:10;1.57;;;1.40;;
43883;SDS011;29544;52.018;5.810;2023-05-21T03:05:38;1.33;;;1.20;;
43883;SDS011;29544;52.018;5.810;2023-05-21T03:08:06;1.45;;;1.10;;
43883;SDS011;29544;52.018;5.810;2023-05-21T03:10:37;2.03;;;1.30;;
43883;SDS011;29544;52.018;5.810;2023-05-21T03:13:08;1.55;;;1.20;;
43883;SDS011;29544;52.018;5.810;2023-05-21T03:15:38;1.52;;;1.30;;
43883;SDS011;29544;52.018;5.810;2023-05-21T03:18:04;1.80;;;1.30;;
43883;SDS011;29544;52.018;5.810;2023-05-21T03:20:30;1.90;;;1.30;;
43883;SDS011;29544;52.018;5.810;2023-05-21T03:22:58;2.22;;;1.25;;
43883;SDS011;29544;52.018;5.810;2023-05-21T03:25:27;1.58;;;1.17;;
43883;SDS011;29544;52.018;5.810;2023-05-21T03:27:53;1.80;;;1.52;;
43883;SDS011;29544;52.018;5.810;2023-05-21T03:30:18;1.73;;;1.27;;
43883;SDS011;29544;52.018;5.810;2023-05-21T03:32:47;1.98;;;1.45;;
43883;SDS011;29544;52.018;5.810;2023-05-21T03:35:15;1.67;;;1.33;;
43883;SDS011;29544;52.018;5.810;2023-05-21T03:37:41;2.72;;;1.58;;
43883;SDS011;29544;52.018;5.810;2023-05-21T03:40:06;2.87;;;1.70;;
43883;SDS011;29544;52.018;5.810;2023-05-21T03:42:34;2.30;;;1.55;;
43883;SDS011;29544;52.018;5.810;2023-05-21T03:45:02;2.17;;;1.40;;
43883;SDS011;29544;52.018;5.810;2023-05-21T03:47:30;2.67;;;1.40;;
43883;SDS011;29544;52.018;5.810;2023-05-21T03:49:59;1.75;;;1.40;;
43883;SDS011;29544;52.018;5.810;2023-05-21T03:52:25;2.13;;;1.40;;
43883;SDS011;29544;52.018;5.810;2023-05-21T03:54:54;1.77;;;1.30;;
43883;SDS011;29544;52.018;5.810;2023-05-21T03:57:19;1.60;;;1.30;;
43883;SDS011;29544;52.018;5.810;2023-05-21T03:59:48;1.40;;;1.30;;
43883;SDS011;29544;52.018;5.810;2023-05-21T04:02:19;2.70;;;1.65;;
43883;SDS011;29544;52.018;5.810;2023-05-21T04:04:48;1.67;;;1.40;;
43883;SDS011;29544;52.018;5.810;2023-05-21T04:07:15;2.42;;;1.40;;
43883;SDS011;29544;52.018;5.810;2023-05-21T04:09:43;1.30;;;1.00;;
43883;SDS011;29544;52.018;5.810;2023-05-21T04:12:08;4.20;;;1.87;;
43883;SDS011;29544;52.018;5.810;2023-05-21T04:14:34;1.33;;;1.23;;
43883;SDS011;29544;52.018;5.810;2023-05-21T04:17:02;2.42;;;1.60;;
43883;SDS011;29544;52.018;5.810;2023-05-21T04:19:31;1.95;;;1.55;;
43883;SDS011;29544;52.018;5.810;2023-05-21T04:21:58;1.90;;;1.37;;
43883;SDS011;29544;52.018;5.810;2023-05-21T04:24:23;1.55;;;1.38;;
43883;SDS011;29544;52.018;5.810;2023-05-21T04:26:52;2.17;;;1.48;;
43883;SDS011;29544;52.018;5.810;2023-05-21T04:29:18;1.70;;;1.40;;
43883;SDS011;29544;52.018;5.810;2023-05-21T04:31:46;2.22;;;1.25;;
43883;SDS011;29544;52.018;5.810;2023-05-21T04:34:12;1.73;;;1.35;;
43883;SDS011;29544;52.018;5.810;2023-05-21T04:36:37;4.10;;;1.60;;
43883;SDS011;29544;52.018;5.810;2023-05-21T04:39:04;2.17;;;1.50;;
43883;SDS011;29544;52.018;5.810;2023-05-21T04:41:32;1.58;;;1.38;;
43883;SDS011;29544;52.018;5.810;2023-05-21T04:44:02;3.75;;;1.50;;
43883;SDS011;29544;52.018;5.810;2023-05-21T04:46:28;2.53;;;1.80;;
43883;SDS011;29544;52.018;5.810;2023-05-21T04:48:54;1.52;;;1.30;;
43883;SDS011;29544;52.018;5.810;2023-05-21T04:51:22;2.83;;;1.77;;
43883;SDS011;29544;52.018;5.810;2023-05-21T04:53:50;1.88;;;1.52;;
43883;SDS011;29544;52.018;5.810;2023-05-21T04:56:17;2.22;;;1.48;;
43883;SDS011;29544;52.018;5.810;2023-05-21T04:58:46;1.85;;;1.58;;
43883;SDS011;29544;52.018;5.810;2023-05-21T05:03:39;2.58;;;1.85;;
43883;SDS011;29544;52.018;5.810;2023-05-21T05:06:06;1.73;;;1.37;;
43883;SDS011;29544;52.018;5.810;2023-05-21T05:08:32;1.90;;;1.52;;
43883;SDS011;29544;52.018;5.810;2023-05-21T05:11:00;1.52;;;1.40;;
43883;SDS011;29544;52.018;5.810;2023-05-21T05:13:29;2.45;;;1.60;;
43883;SDS011;29544;52.018;5.810;2023-05-21T05:15:54;2.42;;;1.60;;
43883;SDS011;29544;52.018;5.810;2023-05-21T05:18:21;2.72;;;1.70;;
43883;SDS011;29544;52.018;5.810;2023-05-21T05:20:47;2.17;;;1.50;;
43883;SDS011;29544;52.018;5.810;2023-05-21T05:23:22;2.30;;;1.70;;
43883;SDS011;29544;52.018;5.810;2023-05-21T05:25:47;2.40;;;1.63;;
43883;SDS011;29544;52.018;5.810;2023-05-21T05:28:13;1.97;;;1.33;;
43883;SDS011;29544;52.018;5.810;2023-05-21T05:30:38;4.23;;;1.57;;
43883;SDS011;29544;52.018;5.810;2023-05-21T05:33:04;1.97;;;1.47;;
43883;SDS011;29544;52.018;5.810;2023-05-21T05:35:29;2.00;;;1.20;;
43883;SDS011;29544;52.018;5.810;2023-05-21T05:37:55;2.23;;;1.50;;
43883;SDS011;29544;52.018;5.810;2023-05-21T05:40:22;2.13;;;1.52;;
43883;SDS011;29544;52.018;5.810;2023-05-21T05:42:51;1.70;;;1.50;;
43883;SDS011;29544;52.018;5.810;2023-05-21T05:45:17;2.50;;;1.77;;
43883;SDS011;29544;52.018;5.810;2023-05-21T05:50:10;2.47;;;1.85;;
43883;SDS011;29544;52.018;5.810;2023-05-21T05:52:36;1.40;;;1.20;;
43883;SDS011;29544;52.018;5.810;2023-05-21T05:55:05;1.80;;;1.50;;
43883;SDS011;29544;52.018;5.810;2023-05-21T05:57:36;1.95;;;1.58;;
43883;SDS011;29544;52.018;5.810;2023-05-21T06:00:05;1.80;;;1.40;;
43883;SDS011;29544;52.018;5.810;2023-05-21T06:02:33;2.30;;;1.50;;
43883;SDS011;29544;52.018;5.810;2023-05-21T06:04:58;1.70;;;1.40;;
43883;SDS011;29544;52.018;5.810;2023-05-21T06:07:24;2.57;;;1.70;;
43883;SDS011;29544;52.018;5.810;2023-05-21T06:09:52;3.13;;;1.53;;
43883;SDS011;29544;52.018;5.810;2023-05-21T06:12:21;1.65;;;1.30;;
43883;SDS011;29544;52.018;5.810;2023-05-21T06:14:47;2.03;;;1.27;;
43883;SDS011;29544;52.018;5.810;2023-05-21T06:17:13;2.40;;;1.30;;
43883;SDS011;29544;52.018;5.810;2023-05-21T06:19:39;1.80;;;1.50;;
43883;SDS011;29544;52.018;5.810;2023-05-21T06:22:05;2.10;;;1.20;;
43883;SDS011;29544;52.018;5.810;2023-05-21T06:24:32;2.65;;;1.60;;
43883;SDS011;29544;52.018;5.810;2023-05-21T06:27:00;1.95;;;1.52;;
43883;SDS011;29544;52.018;5.810;2023-05-21T06:29:26;2.10;;;1.50;;
43883;SDS011;29544;52.018;5.810;2023-05-21T06:31:54;2.42;;;1.52;;
43883;SDS011;29544;52.018;5.810;2023-05-21T06:34:21;1.65;;;1.42;;
43883;SDS011;29544;52.018;5.810;2023-05-21T06:36:59;2.07;;;1.40;;
43883;SDS011;29544;52.018;5.810;2023-05-21T06:39:27;3.03;;;1.75;;
43883;SDS011;29544;52.018;5.810;2023-05-21T06:41:55;1.83;;;1.48;;
43883;SDS011;29544;52.018;5.810;2023-05-21T06:44:33;1.83;;;1.30;;
43883;SDS011;29544;52.018;5.810;2023-05-21T06:46:58;1.45;;;1.27;;
43883;SDS011;29544;52.018;5.810;2023-05-21T06:49:24;1.42;;;1.33;;
43883;SDS011;29544;52.018;5.810;2023-05-21T06:52:00;1.67;;;1.33;;
43883;SDS011;29544;52.018;5.810;2023-05-21T06:54:28;1.55;;;1.35;;
43883;SDS011;29544;52.018;5.810;2023-05-21T06:57:00;1.70;;;1.48;;
43883;SDS011;29544;52.018;5.810;2023-05-21T06:59:27;2.05;;;1.17;;
43883;SDS011;29544;52.018;5.810;2023-05-21T07:01:57;3.25;;;1.50;;
43883;SDS011;29544;52.018;5.810;2023-05-21T07:04:29;2.10;;;1.40;;
43883;SDS011;29544;52.018;5.810;2023-05-21T07:06:56;2.00;;;1.40;;
43883;SDS011;29544;52.018;5.810;2023-05-21T07:09:22;2.00;;;1.60;;
43883;SDS011;29544;52.018;5.810;2023-05-21T07:11:53;1.80;;;1.48;;
43883;SDS011;29544;52.018;5.810;2023-05-21T07:14:28;1.63;;;1.20;;
43883;SDS011;29544;52.018;5.810;2023-05-21T07:16:54;1.98;;;1.50;;
43883;SDS011;29544;52.018;5.810;2023-05-21T07:19:20;3.87;;;1.80;;
43883;SDS011;29544;52.018;5.810;2023-05-21T07:21:45;2.23;;;1.43;;
43883;SDS011;29544;52.018;5.810;2023-05-21T07:24:12;4.38;;;1.70;;
43883;SDS011;29544;52.018;5.810;2023-05-21T07:26:38;1.53;;;1.40;;
43883;SDS011;29544;52.018;5.810;2023-05-21T07:29:05;2.35;;;1.80;;
43883;SDS011;29544;52.018;5.810;2023-05-21T07:31:30;3.43;;;1.50;;
43883;SDS011;29544;52.018;5.810;2023-05-21T07:33:59;2.73;;;1.73;;
43883;SDS011;29544;52.018;5.810;2023-05-21T07:36:24;2.45;;;1.60;;
43883;SDS011;29544;52.018;5.810;2023-05-21T07:38:53;2.50;;;1.93;;
43883;SDS011;29544;52.018;5.810;2023-05-21T07:41:19;2.55;;;1.65;;
43883;SDS011;29544;52.018;5.810;2023-05-21T07:43:51;4.30;;;2.00;;
43883;SDS011;29544;52.018;5.810;2023-05-21T07:46:17;3.70;;;1.33;;
43883;SDS011;29544;52.018;5.810;2023-05-21T07:48:43;6.07;;;1.77;;
43883;SDS011;29544;52.018;5.810;2023-05-21T07:51:11;8.48;;;1.98;;
43883;SDS011;29544;52.018;5.810;2023-05-21T07:53:40;3.10;;;1.38;;
43883;SDS011;29544;52.018;5.810;2023-05-21T07:56:06;2.50;;;1.70;;
43883;SDS011;29544;52.018;5.810;2023-05-21T07:58:31;2.88;;;1.77;;
43883;SDS011;29544;52.018;5.810;2023-05-21T08:01:02;3.33;;;1.70;;
43883;SDS011;29544;52.018;5.810;2023-05-21T08:03:28;2.50;;;1.60;;
43883;SDS011;29544;52.018;5.810;2023-05-21T08:05:56;3.75;;;1.90;;
43883;SDS011;29544;52.018;5.810;2023-05-21T08:08:22;4.83;;;1.93;;
43883;SDS011;29544;52.018;5.810;2023-05-21T08:10:48;2.23;;;1.93;;
43883;SDS011;29544;52.018;5.810;2023-05-21T08:13:14;2.30;;;1.50;;
43883;SDS011;29544;52.018;5.810;2023-05-21T08:15:42;2.47;;;1.60;;
43883;SDS011;29544;52.018;5.810;2023-05-21T08:18:11;1.83;;;1.43;;
43883;SDS011;29544;52.018;5.810;2023-05-21T08:20:41;4.05;;;2.05;;
43883;SDS011;29544;52.018;5.810;2023-05-21T08:23:07;4.33;;;2.37;;
43883;SDS011;29544;52.018;5.810;2023-05-21T08:25:32;2.87;;;2.07;;
43883;SDS011;29544;52.018;5.810;2023-05-21T08:27:58;5.18;;;2.00;;
43883;SDS011;29544;52.018;5.810;2023-05-21T08:30:24;2.80;;;1.90;;
43883;SDS011;29544;52.018;5.810;2023-05-21T08:32:49;1.93;;;1.43;;
43883;SDS011;29544;52.018;5.810;2023-05-21T08:35:15;2.60;;;1.70;;
43883;SDS011;29544;52.018;5.810;2023-05-21T08:37:40;1.70;;;1.37;;
43883;SDS011;29544;52.018;5.810;2023-05-21T08:40:08;5.05;;;1.88;;
43883;SDS011;29544;52.018;5.810;2023-05-21T08:42:47;2.13;;;1.65;;
43883;SDS011;29544;52.018;5.810;2023-05-21T08:45:16;2.35;;;1.50;;
43883;SDS011;29544;52.018;5.810;2023-05-21T08:47:45;3.28;;;2.00;;
43883;SDS011;29544;52.018;5.810;2023-05-21T08:50:13;1.90;;;1.58;;
43883;SDS011;29544;52.018;5.810;2023-05-21T08:52:40;1.77;;;1.63;;
43883;SDS011;29544;52.018;5.810;2023-05-21T08:55:07;1.98;;;1.52;;
43883;SDS011;29544;52.018;5.810;2023-05-21T08:58:05;3.35;;;2.13;;
43883;SDS011;29544;52.018;5.810;2023-05-21T09:00:31;2.55;;;1.70;;
43883;SDS011;29544;52.018;5.810;2023-05-21T09:03:01;2.00;;;1.60;;
43883;SDS011;29544;52.018;5.810;2023-05-21T09:05:42;2.88;;;1.73;;
43883;SDS011;29544;52.018;5.810;2023-05-21T09:08:18;2.40;;;1.65;;
43883;SDS011;29544;52.018;5.810;2023-05-21T09:10:51;3.22;;;2.08;;
43883;SDS011;29544;52.018;5.810;2023-05-21T09:13:25;3.05;;;2.13;;
43883;SDS011;29544;52.018;5.810;2023-05-21T09:15:52;3.00;;;2.30;;
43883;SDS011;29544;52.018;5.810;2023-05-21T09:18:18;5.10;;;2.15;;
43883;SDS011;29544;52.018;5.810;2023-05-21T09:20:47;7.87;;;2.73;;
43883;SDS011;29544;52.018;5.810;2023-05-21T09:23:15;6.70;;;2.85;;
43883;SDS011;29544;52.018;5.810;2023-05-21T09:25:44;5.55;;;2.50;;
43883;SDS011;29544;52.018;5.810;2023-05-21T09:28:13;4.43;;;2.92;;
43883;SDS011;29544;52.018;5.810;2023-05-21T09:30:46;3.97;;;3.00;;
43883;SDS011;29544;52.018;5.810;2023-05-21T09:33:22;5.50;;;2.50;;
43883;SDS011;29544;52.018;5.810;2023-05-21T09:35:54;3.92;;;2.88;;
43883;SDS011;29544;52.018;5.810;2023-05-21T09:38:23;5.15;;;2.50;;
43883;SDS011;29544;52.018;5.810;2023-05-21T09:40:50;4.72;;;3.03;;
43883;SDS011;29544;52.018;5.810;2023-05-21T09:43:20;7.43;;;2.95;;
43883;SDS011;29544;52.018;5.810;2023-05-21T09:45:53;7.15;;;3.25;;
43883;SDS011;29544;52.018;5.810;2023-05-21T09:51:07;4.32;;;3.28;;
43883;SDS011;29544;52.018;5.810;2023-05-21T09:56:33;4.35;;;3.13;;
43883;SDS011;29544;52.018;5.810;2023-05-21T09:59:01;5.07;;;2.97;;
43883;SDS011;29544;52.018;5.810;2023-05-21T10:01:32;5.10;;;3.03;;
43883;SDS011;29544;52.018;5.810;2023-05-21T10:04:02;4.18;;;2.92;;
43883;SDS011;29544;52.018;5.810;2023-05-21T10:06:31;5.82;;;3.50;;
43883;SDS011;29544;52.018;5.810;2023-05-21T10:09:00;5.57;;;3.40;;
43883;SDS011;29544;52.018;5.810;2023-05-21T10:11:30;3.92;;;2.70;;
43883;SDS011;29544;52.018;5.810;2023-05-21T10:16:43;5.05;;;3.28;;
43883;SDS011;29544;52.018;5.810;2023-05-21T10:19:11;4.35;;;2.90;;
43883;SDS011;29544;52.018;5.810;2023-05-21T10:21:38;3.67;;;2.95;;
43883;SDS011;29544;52.018;5.810;2023-05-21T10:24:05;4.80;;;3.22;;
43883;SDS011;29544;52.018;5.810;2023-05-21T10:26:32;3.60;;;3.03;;
43883;SDS011;29544;52.018;5.810;2023-05-21T10:28:58;6.90;;;3.63;;
43883;SDS011;29544;52.018;5.810;2023-05-21T10:31:24;4.03;;;3.22;;
43883;SDS011;29544;52.018;5.810;2023-05-21T10:33:52;5.38;;;3.33;;
43883;SDS011;29544;52.018;5.810;2023-05-21T10:36:18;4.50;;;3.53;;
43883;SDS011;29544;52.018;5.810;2023-05-21T10:38:46;4.63;;;3.53;;
43883;SDS011;29544;52.018;5.810;2023-05-21T10:41:15;4.43;;;4.03;;
43883;SDS011;29544;52.018;5.810;2023-05-21T11:00:42;21.80;;;19.58;;
43883;SDS011;29544;52.018;5.810;2023-05-21T11:03:11;28.17;;;25.60;;
43883;SDS011;29544;52.018;5.810;2023-05-21T11:05:49;24.70;;;22.40;;
43883;SDS011;29544;52.018;5.810;2023-05-21T11:08:20;37.15;;;33.95;;
43883;SDS011;29544;52.018;5.810;2023-05-21T11:10:56;36.65;;;33.28;;
43883;SDS011;29544;52.018;5.810;2023-05-21T11:21:13;40.92;;;37.53;;
43883;SDS011;29544;52.018;5.810;2023-05-21T11:24:03;45.83;;;41.72;;
43883;SDS011;29544;52.018;5.810;2023-05-21T11:29:17;37.08;;;33.88;;
43883;SDS011;29544;52.018;5.810;2023-05-21T11:31:47;33.40;;;30.38;;
43883;SDS011;29544;52.018;5.810;2023-05-21T11:34:25;32.63;;;29.83;;
43883;SDS011;29544;52.018;5.810;2023-05-21T11:40:16;35.38;;;32.25;;
43883;SDS011;29544;52.018;5.810;2023-05-21T11:42:53;30.63;;;27.95;;
43883;SDS011;29544;52.018;5.810;2023-05-21T11:45:26;29.10;;;26.40;;
43883;SDS011;29544;52.018;5.810;2023-05-21T11:47:57;28.42;;;25.92;;
43883;SDS011;29544;52.018;5.810;2023-05-21T11:50:25;26.95;;;24.58;;
43883;SDS011;29544;52.018;5.810;2023-05-21T11:52:58;24.60;;;22.40;;
43883;SDS011;29544;52.018;5.810;2023-05-21T11:57:51;21.95;;;19.88;;
43883;SDS011;29544;52.018;5.810;2023-05-21T12:00:17;20.90;;;19.00;;
43883;SDS011;29544;52.018;5.810;2023-05-21T12:02:44;20.50;;;18.53;;
43883;SDS011;29544;52.018;5.810;2023-05-21T12:05:11;19.23;;;17.52;;
43883;SDS011;29544;52.018;5.810;2023-05-21T12:07:36;20.73;;;18.80;;
43883;SDS011;29544;52.018;5.810;2023-05-21T12:10:02;18.27;;;16.67;;
43883;SDS011;29544;52.018;5.810;2023-05-21T12:12:31;17.40;;;15.82;;
43883;SDS011;29544;52.018;5.810;2023-05-21T12:14:58;16.23;;;14.73;;
43883;SDS011;29544;52.018;5.810;2023-05-21T12:17:24;15.43;;;14.02;;
43883;SDS011;29544;52.018;5.810;2023-05-21T12:19:55;14.90;;;13.60;;
43883;SDS011;29544;52.018;5.810;2023-05-21T12:27:26;13.68;;;12.20;;
43883;SDS011;29544;52.018;5.810;2023-05-21T12:29:57;12.75;;;11.55;;
43883;SDS011;29544;52.018;5.810;2023-05-21T12:32:25;12.30;;;11.10;;
43883;SDS011;29544;52.018;5.810;2023-05-21T12:34:52;12.65;;;11.43;;
43883;SDS011;29544;52.018;5.810;2023-05-21T12:40:04;11.98;;;10.75;;
43883;SDS011;29544;52.018;5.810;2023-05-21T12:42:32;10.80;;;9.80;;
43883;SDS011;29544;52.018;5.810;2023-05-21T12:45:04;11.18;;;10.07;;
43883;SDS011;29544;52.018;5.810;2023-05-21T12:47:31;10.70;;;9.60;;
43883;SDS011;29544;52.018;5.810;2023-05-21T12:50:06;13.43;;;10.25;;
43883;SDS011;29544;52.018;5.810;2023-05-21T12:52:36;11.25;;;9.65;;
43883;SDS011;29544;52.018;5.810;2023-05-21T12:55:04;10.27;;;9.27;;
43883;SDS011;29544;52.018;5.810;2023-05-21T12:57:34;9.85;;;8.90;;
43883;SDS011;29544;52.018;5.810;2023-05-21T13:00:06;9.77;;;8.60;;
43883;SDS011;29544;52.018;5.810;2023-05-21T13:02:39;9.35;;;8.45;;
43883;SDS011;29544;52.018;5.810;2023-05-21T13:05:08;9.35;;;8.45;;
43883;SDS011;29544;52.018;5.810;2023-05-21T13:07:43;8.70;;;7.78;;
43883;SDS011;29544;52.018;5.810;2023-05-21T13:10:14;10.30;;;8.32;;
43883;SDS011;29544;52.018;5.810;2023-05-21T13:12:40;8.75;;;7.95;;
43883;SDS011;29544;52.018;5.810;2023-05-21T13:15:06;8.88;;;7.97;;
43883;SDS011;29544;52.018;5.810;2023-05-21T13:17:34;9.48;;;7.28;;
43883;SDS011;29544;52.018;5.810;2023-05-21T13:20:08;8.57;;;7.60;;
43883;SDS011;29544;52.018;5.810;2023-05-21T13:22:44;7.90;;;7.10;;
43883;SDS011;29544;52.018;5.810;2023-05-21T13:25:13;8.05;;;7.25;;
43883;SDS011;29544;52.018;5.810;2023-05-21T13:27:44;8.15;;;6.80;;
43883;SDS011;29544;52.018;5.810;2023-05-21T13:32:36;7.50;;;6.80;;
43883;SDS011;29544;52.018;5.810;2023-05-21T13:35:03;7.82;;;7.00;;
43883;SDS011;29544;52.018;5.810;2023-05-21T13:37:35;7.28;;;6.55;;
43883;SDS011;29544;52.018;5.810;2023-05-21T13:40:10;7.63;;;6.75;;
43883;SDS011;29544;52.018;5.810;2023-05-21T13:42:38;6.43;;;5.80;;
43883;SDS011;29544;52.018;5.810;2023-05-21T13:45:05;8.50;;;7.13;;
43883;SDS011;29544;52.018;5.810;2023-05-21T13:47:33;7.30;;;6.03;;
43883;SDS011;29544;52.018;5.810;2023-05-21T13:50:00;8.18;;;6.82;;
43883;SDS011;29544;52.018;5.810;2023-05-21T13:52:26;7.07;;;5.97;;
43883;SDS011;29544;52.018;5.810;2023-05-21T13:54:52;6.97;;;5.83;;
43883;SDS011;29544;52.018;5.810;2023-05-21T13:57:18;7.35;;;6.15;;
43883;SDS011;29544;52.018;5.810;2023-05-21T13:59:44;6.68;;;5.93;;
43883;SDS011;29544;52.018;5.810;2023-05-21T14:02:10;6.10;;;5.50;;
43883;SDS011;29544;52.018;5.810;2023-05-21T14:04:35;5.87;;;5.27;;
43883;SDS011;29544;52.018;5.810;2023-05-21T14:07:01;5.63;;;4.80;;
43883;SDS011;29544;52.018;5.810;2023-05-21T14:09:28;5.85;;;5.25;;
43883;SDS011;29544;52.018;5.810;2023-05-21T14:12:00;6.88;;;5.90;;
43883;SDS011;29544;52.018;5.810;2023-05-21T14:14:25;5.77;;;5.17;;
43883;SDS011;29544;52.018;5.810;2023-05-21T14:16:51;5.88;;;5.28;;
43883;SDS011;29544;52.018;5.810;2023-05-21T14:19:17;6.33;;;5.60;;
43883;SDS011;29544;52.018;5.810;2023-05-21T14:21:42;9.43;;;5.55;;
43883;SDS011;29544;52.018;5.810;2023-05-21T14:26:36;9.10;;;5.72;;
43883;SDS011;29544;52.018;5.810;2023-05-21T14:29:03;6.35;;;5.75;;
43883;SDS011;29544;52.018;5.810;2023-05-21T14:31:31;6.55;;;5.40;;
43883;SDS011;29544;52.018;5.810;2023-05-21T14:33:57;8.23;;;5.03;;
43883;SDS011;29544;52.018;5.810;2023-05-21T14:36:25;7.25;;;5.40;;
43883;SDS011;29544;52.018;5.810;2023-05-21T14:38:51;6.57;;;5.27;;
43883;SDS011;29544;52.018;5.810;2023-05-21T14:41:17;5.50;;;4.85;;
43883;SDS011;29544;52.018;5.810;2023-05-21T14:43:51;5.85;;;4.80;;
43883;SDS011;29544;52.018;5.810;2023-05-21T14:46:16;7.60;;;5.07;;
43883;SDS011;29544;52.018;5.810;2023-05-21T14:48:42;7.43;;;5.43;;
43883;SDS011;29544;52.018;5.810;2023-05-21T14:51:10;7.15;;;5.53;;
43883;SDS011;29544;52.018;5.810;2023-05-21T14:53:58;5.60;;;4.68;;
43883;SDS011;29544;52.018;5.810;2023-05-21T14:56:25;7.10;;;5.15;;
43883;SDS011;29544;52.018;5.810;2023-05-21T14:58:52;5.68;;;4.75;;
43883;SDS011;29544;52.018;5.810;2023-05-21T15:01:18;7.28;;;5.30;;
43883;SDS011;29544;52.018;5.810;2023-05-21T15:03:49;6.18;;;5.50;;
43883;SDS011;29544;52.018;5.810;2023-05-21T15:06:22;7.07;;;5.15;;
43883;SDS011;29544;52.018;5.810;2023-05-21T15:08:49;7.75;;;4.97;;
43883;SDS011;29544;52.018;5.810;2023-05-21T15:11:16;6.30;;;5.30;;
43883;SDS011;29544;52.018;5.810;2023-05-21T15:13:45;5.70;;;5.15;;
43883;SDS011;29544;52.018;5.810;2023-05-21T15:16:10;5.97;;;5.03;;
43883;SDS011;29544;52.018;5.810;2023-05-21T15:18:36;6.47;;;4.67;;
43883;SDS011;29544;52.018;5.810;2023-05-21T15:21:02;6.10;;;5.43;;
43883;SDS011;29544;52.018;5.810;2023-05-21T15:23:28;9.02;;;4.85;;
43883;SDS011;29544;52.018;5.810;2023-05-21T15:25:56;7.75;;;5.03;;
43883;SDS011;29544;52.018;5.810;2023-05-21T15:28:21;6.87;;;5.27;;
43883;SDS011;29544;52.018;5.810;2023-05-21T15:30:50;5.80;;;4.90;;
43883;SDS011;29544;52.018;5.810;2023-05-21T15:33:18;6.07;;;5.13;;
43883;SDS011;29544;52.018;5.810;2023-05-21T15:35:44;5.65;;;4.47;;
43883;SDS011;29544;52.018;5.810;2023-05-21T15:38:10;6.10;;;5.10;;
43883;SDS011;29544;52.018;5.810;2023-05-21T15:40:36;8.15;;;4.90;;
43883;SDS011;29544;52.018;5.810;2023-05-21T15:43:05;5.45;;;4.43;;
43883;SDS011;29544;52.018;5.810;2023-05-21T15:45:30;6.60;;;5.57;;
43883;SDS011;29544;52.018;5.810;2023-05-21T15:47:56;5.80;;;5.00;;
43883;SDS011;29544;52.018;5.810;2023-05-21T15:50:21;6.07;;;5.10;;
43883;SDS011;29544;52.018;5.810;2023-05-21T15:52:47;6.43;;;5.40;;
43883;SDS011;29544;52.018;5.810;2023-05-21T15:55:13;7.40;;;5.15;;
43883;SDS011;29544;52.018;5.810;2023-05-21T15:57:41;5.88;;;5.25;;
43883;SDS011;29544;52.018;5.810;2023-05-21T16:00:08;7.88;;;5.53;;